Historique des mesures à Cassis (13260), France
Quotidien Résumé Juillet 12, 2017 Unités:  Métrique    US   Métrique/US
« Précédent (Jour)
Suivant (Jour) »
Quotidien Hebdomadaire Mensuel Annuel Période au choix
  Maximum: Minimum: Moyenne:
Température: TemperatureC °C 22.6 °C 26.1 °C
Point de rosée: DewpointC °C 15.5 °C 16.4 °C
Humidité: Humidity % 36 % 53 %
Vitesse du vent: 0 km/h 0 km/h 14.2 km/h
Rafales: 0 km/h - -
Vent:- - WSW
Pression: PressurehPa hPa 1010.0 hPa -
Précipitations: 0.0 mm    
Historical Graphs
 
 
Mesures pour : Juillet 12, 2017
Heure Temperature Point de rosée Pression Vent Vitesse du vent Rafales Humidité Pluie (par heure) Conditions
TemperatureC °C DewpointC °C PressurehPa hPa Calm     Humidity % HourlyPrecipMM mm SoftwareType W/m2
00:10 23.5 °C 17.0 °C 1011.4 hPa Calm   2.9 km/h 67 % 0.0 mm open2300-1.11 W/m2
01:11 23.1 °C 16.7 °C 1011.4 hPa Calm     67 % 0.0 mm open2300-1.11 W/m2
02:11 22.8 °C 16.3 °C 1010.7 hPa Calm   3.4 km/h 67 % 0.0 mm open2300-1.11 W/m2
03:11 22.9 °C 16.2 °C 1010.7 hPa Calm     66 % 0.0 mm open2300-1.11 W/m2
04:11 22.8 °C 16.8 °C 1010.4 hPa NNW 1.8 km/h 11.6 km/h 69 % 0.0 mm open2300-1.11 W/m2
05:11 22.9 °C 16.9 °C 1010.4 hPa Calm     69 % 0.0 mm open2300-1.11 W/m2
06:11 22.6 °C 16.9 °C 1010.4 hPa Calm   6.4 km/h 70 % 0.0 mm open2300-1.11 W/m2
07:11 22.9 °C 16.9 °C 1010.7 hPa SE 5.1 km/h 5.1 km/h 69 % 0.0 mm open2300-1.11 W/m2
08:11 27.0 °C 19.3 °C 1010.7 hPa Calm     63 % 0.0 mm open2300-1.11 W/m2
09:11 25.6 °C 18.0 °C 1011.1 hPa East 7.6 km/h 8.9 km/h 63 % 0.0 mm open2300-1.11 W/m2
10:11 27.2 °C 17.1 °C 1011.4 hPa WNW 9.8 km/h 30.7 km/h 54 % 0.0 mm open2300-1.11 W/m2
11:11 30.6 °C 16.2 °C 1011.4 hPa NNW 10.3 km/h 37 km/h 42 % 0.0 mm open2300-1.11 W/m2
12:11 31.6 °C 15.9 °C 1011.4 hPa North 14 km/h 14 km/h 39 % 0.0 mm open2300-1.11 W/m2
13:11 32.6 °C 15.5 °C 1011.4 hPa NNW 15 km/h 31.9 km/h 36 % 0.0 mm open2300-1.11 W/m2
14:11 32.9 °C 16.2 °C 1011.1 hPa West 20.3 km/h 20.3 km/h 37 % 0.0 mm open2300-1.11 W/m2
15:11 31.1 °C 17.7 °C 1011.4 hPa NW 42.2 km/h 42.2 km/h 45 % 0.0 mm open2300-1.11 W/m2
16:11 30.3 °C 18.1 °C 1011.1 hPa NNW 30.1 km/h 48.1 km/h 48 % 0.0 mm open2300-1.11 W/m2
17:11 29.8 °C 17.6 °C 1011.1 hPa North 9.3 km/h 33.2 km/h 48 % 0.0 mm open2300-1.11 W/m2
18:11 29.6 °C 18.2 °C 1010.7 hPa NW 55.7 km/h 55.7 km/h 50 % 0.0 mm open2300-1.11 W/m2
19:11 29.6 °C 18.4 °C 1010.4 hPa WNW 54.4 km/h 54.4 km/h 51 % 0.0 mm open2300-1.11 W/m2
20:11 28.8 °C 18.6 °C 1010.4 hPa NNW 14 km/h 32.3 km/h 54 % 0.0 mm open2300-1.11 W/m2
21:11 27.6 °C 18.0 °C 1010.0 hPa WNW 23 km/h 25.4 km/h 56 % 0.0 mm open2300-1.11 W/m2
22:11 27.9 °C 16.2 °C 1010.7 hPa NNW 30.1 km/h 30.1 km/h 49 % 0.0 mm open2300-1.11 W/m2
23:11 27.6 °C 15.9 °C 1011.1 hPa North 11.6 km/h 12.7 km/h 49 % 0.0 mm open2300-1.11 W/m2
Observations météo à CASSIS
WU-History script by Weather Underground - 1 mb